Daniel Field Augusta US
ICAO: KDNL
IATA: DNL
Category: Medium
Scheduled Services: No

Elevation: 423 ft
TransAlt. 18000 ft.

Airport Communications:
AUGUSTA APP/DEP:126.8
ASOS:135.275
CLNC DEL:128.1
MACON RDO:122.3
CTAF/UNICOM:123.05

KDNL Zoom In..

If you have problems with the map follow the link
https://www.worldairports.se/pages/airport.php?
ICAO=KDNL

Runways:

(A) RW 05 length 4002 ft width 100 ft
---- / hdg 50

(B) RW 11 length 3733 ft width 100 ft
---- / hdg 108

(C) RW 23 length 4002 ft width 100 ft
---- / hdg 230

(D) RW 29 length 3733 ft width 100 ft
---- / hdg 288

Location; KDNL
Day. 16 / Time. 02.53 Zulu
* Altimeter: 30.02
* Temperature: 07° c. 44.6°f.
* Wind from: 260° Speed 08 kn with Gusts up to 18 kn.
Dewpoint: 02° c.
Visibility: 10 Statute Miles.
Clouds: Broken 1900 ft.

KDNL 160253Z AUTO 26008G18KT 220V300 10SM BKN019 07/02 A3002 RMK AO2 SLP166 T00670022 51006


Wind From 260°
Speed 08 kn.

 
 
jpsmedia.com for Web Design worldairports.se 2018   terms of use